sensor_id;sensor_type;location;lat;lon;timestamp;temperature;humidity
19924;DHT22;10124;53.068;18.224;2022-11-20T00:01:29;0.20;1.00
19924;DHT22;10124;53.068;18.224;2022-11-20T00:03:57;-1.10;1.00
19924;DHT22;10124;53.068;18.224;2022-11-20T00:06:27;-0.10;1.00
19924;DHT22;10124;53.068;18.224;2022-11-20T00:08:57;-1.20;1.00
19924;DHT22;10124;53.068;18.224;2022-11-20T00:11:28;-1.20;1.00
19924;DHT22;10124;53.068;18.224;2022-11-20T00:14:00;-1.20;1.00
19924;DHT22;10124;53.068;18.224;2022-11-20T00:16:30;-1.20;1.00
19924;DHT22;10124;53.068;18.224;2022-11-20T00:18:58;0.50;1.00
19924;DHT22;10124;53.068;18.224;2022-11-20T00:21:27;-1.20;1.00
19924;DHT22;10124;53.068;18.224;2022-11-20T00:23:56;-1.20;1.00
19924;DHT22;10124;53.068;18.224;2022-11-20T00:26:25;-1.10;1.00
19924;DHT22;10124;53.068;18.224;2022-11-20T00:28:58;-1.10;1.00
19924;DHT22;10124;53.068;18.224;2022-11-20T00:31:26;-1.20;1.00
19924;DHT22;10124;53.068;18.224;2022-11-20T00:33:54;-1.10;1.00
19924;DHT22;10124;53.068;18.224;2022-11-20T00:36:24;-1.20;1.00
19924;DHT22;10124;53.068;18.224;2022-11-20T00:38:54;-1.20;1.00
19924;DHT22;10124;53.068;18.224;2022-11-20T00:41:24;-1.10;1.00
19924;DHT22;10124;53.068;18.224;2022-11-20T00:43:54;-1.10;1.00
19924;DHT22;10124;53.068;18.224;2022-11-20T00:46:23;-1.10;1.00
19924;DHT22;10124;53.068;18.224;2022-11-20T00:48:52;-1.10;1.00
19924;DHT22;10124;53.068;18.224;2022-11-20T00:51:22;-1.10;1.00
19924;DHT22;10124;53.068;18.224;2022-11-20T00:53:50;-1.10;1.00
19924;DHT22;10124;53.068;18.224;2022-11-20T00:56:19;-1.10;1.00
19924;DHT22;10124;53.068;18.224;2022-11-20T00:58:48;-1.00;1.00
19924;DHT22;10124;53.068;18.224;2022-11-20T01:01:21;-1.10;1.00
19924;DHT22;10124;53.068;18.224;2022-11-20T01:03:53;-1.10;1.00
19924;DHT22;10124;53.068;18.224;2022-11-20T01:08:55;-1.10;1.00
19924;DHT22;10124;53.068;18.224;2022-11-20T01:11:25;-1.10;1.00
19924;DHT22;10124;53.068;18.224;2022-11-20T01:13:54;0.10;1.00
19924;DHT22;10124;53.068;18.224;2022-11-20T01:16:26;-1.10;1.00
19924;DHT22;10124;53.068;18.224;2022-11-20T01:18:57;-1.10;1.00
19924;DHT22;10124;53.068;18.224;2022-11-20T01:21:30;-1.10;1.00
19924;DHT22;10124;53.068;18.224;2022-11-20T01:23:59;-1.10;1.00
19924;DHT22;10124;53.068;18.224;2022-11-20T01:26:28;-1.10;1.00
19924;DHT22;10124;53.068;18.224;2022-11-20T01:28:57;-1.10;1.00
19924;DHT22;10124;53.068;18.224;2022-11-20T01:31:33;-0.30;1.00
19924;DHT22;10124;53.068;18.224;2022-11-20T01:34:05;-1.10;1.00
19924;DHT22;10124;53.068;18.224;2022-11-20T01:36:35;-1.10;1.00
19924;DHT22;10124;53.068;18.224;2022-11-20T01:39:06;-1.10;1.00
19924;DHT22;10124;53.068;18.224;2022-11-20T01:41:34;0.30;1.00
19924;DHT22;10124;53.068;18.224;2022-11-20T01:44:22;-0.20;1.00
19924;DHT22;10124;53.068;18.224;2022-11-20T01:47:09;-1.10;1.00
19924;DHT22;10124;53.068;18.224;2022-11-20T01:49:52;-1.00;1.00
19924;DHT22;10124;53.068;18.224;2022-11-20T01:52:25;-1.10;1.00
19924;DHT22;10124;53.068;18.224;2022-11-20T01:55:00;-1.10;1.00
19924;DHT22;10124;53.068;18.224;2022-11-20T01:57:30;-1.00;1.00
19924;DHT22;10124;53.068;18.224;2022-11-20T02:00:11;-1.10;1.00
19924;DHT22;10124;53.068;18.224;2022-11-20T02:02:42;-1.00;1.00
19924;DHT22;10124;53.068;18.224;2022-11-20T02:07:57;-0.70;1.00
19924;DHT22;10124;53.068;18.224;2022-11-20T02:10:26;-1.00;1.00
19924;DHT22;10124;53.068;18.224;2022-11-20T02:12:55;-1.10;1.00
19924;DHT22;10124;53.068;18.224;2022-11-20T02:15:42;-1.00;1.00
19924;DHT22;10124;53.068;18.224;2022-11-20T02:18:11;-1.00;1.00
19924;DHT22;10124;53.068;18.224;2022-11-20T02:20:46;-1.00;1.00
19924;DHT22;10124;53.068;18.224;2022-11-20T02:25:58;-1.00;1.00
19924;DHT22;10124;53.068;18.224;2022-11-20T02:28:28;-1.10;1.00
19924;DHT22;10124;53.068;18.224;2022-11-20T02:30:55;-1.00;1.00
19924;DHT22;10124;53.068;18.224;2022-11-20T02:33:23;-1.10;1.00
19924;DHT22;10124;53.068;18.224;2022-11-20T02:35:51;-1.10;1.00
19924;DHT22;10124;53.068;18.224;2022-11-20T02:38:18;-1.10;1.00
19924;DHT22;10124;53.068;18.224;2022-11-20T02:40:46;-1.00;1.00
19924;DHT22;10124;53.068;18.224;2022-11-20T02:43:21;-1.20;1.00
19924;DHT22;10124;53.068;18.224;2022-11-20T02:45:49;-1.20;1.00
19924;DHT22;10124;53.068;18.224;2022-11-20T02:48:16;-1.10;1.00
19924;DHT22;10124;53.068;18.224;2022-11-20T02:50:44;-1.20;1.00
19924;DHT22;10124;53.068;18.224;2022-11-20T02:53:11;-1.00;1.00
19924;DHT22;10124;53.068;18.224;2022-11-20T02:55:39;-1.20;1.00
19924;DHT22;10124;53.068;18.224;2022-11-20T02:58:06;-1.30;1.00
19924;DHT22;10124;53.068;18.224;2022-11-20T03:00:34;-1.20;1.00
19924;DHT22;10124;53.068;18.224;2022-11-20T03:03:02;-1.20;1.00
19924;DHT22;10124;53.068;18.224;2022-11-20T03:05:30;-0.30;1.00
19924;DHT22;10124;53.068;18.224;2022-11-20T03:07:57;-1.20;1.00
19924;DHT22;10124;53.068;18.224;2022-11-20T03:10:25;-0.30;1.00
19924;DHT22;10124;53.068;18.224;2022-11-20T03:12:53;-1.20;1.00
19924;DHT22;10124;53.068;18.224;2022-11-20T03:15:23;-1.20;1.00
19924;DHT22;10124;53.068;18.224;2022-11-20T03:17:54;-1.20;1.00
19924;DHT22;10124;53.068;18.224;2022-11-20T03:20:23;-1.20;1.00
19924;DHT22;10124;53.068;18.224;2022-11-20T03:22:50;-1.20;1.00
19924;DHT22;10124;53.068;18.224;2022-11-20T03:25:21;-1.20;1.00
19924;DHT22;10124;53.068;18.224;2022-11-20T03:27:49;-0.40;1.00
19924;DHT22;10124;53.068;18.224;2022-11-20T03:30:17;-1.10;1.00
19924;DHT22;10124;53.068;18.224;2022-11-20T03:32:45;-1.20;1.00
19924;DHT22;10124;53.068;18.224;2022-11-20T03:35:13;-1.10;1.00
19924;DHT22;10124;53.068;18.224;2022-11-20T03:37:40;-1.10;1.00
19924;DHT22;10124;53.068;18.224;2022-11-20T03:40:08;-1.10;1.00
19924;DHT22;10124;53.068;18.224;2022-11-20T03:42:36;-1.10;1.00
19924;DHT22;10124;53.068;18.224;2022-11-20T03:45:17;-1.10;1.00
19924;DHT22;10124;53.068;18.224;2022-11-20T03:47:45;-1.10;1.00
19924;DHT22;10124;53.068;18.224;2022-11-20T03:50:13;0.50;1.00
19924;DHT22;10124;53.068;18.224;2022-11-20T03:52:41;-1.10;1.00
19924;DHT22;10124;53.068;18.224;2022-11-20T03:55:09;-1.10;1.00
19924;DHT22;10124;53.068;18.224;2022-11-20T03:57:37;-1.00;1.00
19924;DHT22;10124;53.068;18.224;2022-11-20T04:00:05;0.90;1.00
19924;DHT22;10124;53.068;18.224;2022-11-20T04:02:33;-1.10;1.00
19924;DHT22;10124;53.068;18.224;2022-11-20T04:05:01;-1.00;1.00
19924;DHT22;10124;53.068;18.224;2022-11-20T04:07:28;-1.10;1.00
19924;DHT22;10124;53.068;18.224;2022-11-20T04:09:56;-1.10;1.00
19924;DHT22;10124;53.068;18.224;2022-11-20T04:12:23;-0.50;1.00
19924;DHT22;10124;53.068;18.224;2022-11-20T04:14:51;-1.10;1.00
19924;DHT22;10124;53.068;18.224;2022-11-20T04:17:18;-1.10;1.00
19924;DHT22;10124;53.068;18.224;2022-11-20T04:19:46;-1.10;1.00
19924;DHT22;10124;53.068;18.224;2022-11-20T04:22:14;-1.20;1.00
19924;DHT22;10124;53.068;18.224;2022-11-20T04:24:42;-1.10;1.00
19924;DHT22;10124;53.068;18.224;2022-11-20T04:27:09;-1.00;1.00
19924;DHT22;10124;53.068;18.224;2022-11-20T04:29:37;-1.10;1.00
19924;DHT22;10124;53.068;18.224;2022-11-20T04:32:04;0.70;1.00
19924;DHT22;10124;53.068;18.224;2022-11-20T04:34:32;0.90;1.00
19924;DHT22;10124;53.068;18.224;2022-11-20T04:37:00;-1.00;1.00
19924;DHT22;10124;53.068;18.224;2022-11-20T04:39:28;-1.00;1.00
19924;DHT22;10124;53.068;18.224;2022-11-20T04:41:55;-1.00;1.00
19924;DHT22;10124;53.068;18.224;2022-11-20T04:44:42;-1.00;1.00
19924;DHT22;10124;53.068;18.224;2022-11-20T04:47:09;-1.00;1.00
19924;DHT22;10124;53.068;18.224;2022-11-20T04:49:37;-1.00;1.00
19924;DHT22;10124;53.068;18.224;2022-11-20T04:52:04;-1.10;1.00
19924;DHT22;10124;53.068;18.224;2022-11-20T04:54:32;-1.10;1.00
19924;DHT22;10124;53.068;18.224;2022-11-20T04:56:59;0.30;1.00
19924;DHT22;10124;53.068;18.224;2022-11-20T04:59:27;-1.00;1.00
19924;DHT22;10124;53.068;18.224;2022-11-20T05:01:55;-1.00;1.00
19924;DHT22;10124;53.068;18.224;2022-11-20T05:04:22;0.50;1.00
19924;DHT22;10124;53.068;18.224;2022-11-20T05:06:50;-1.10;1.00
19924;DHT22;10124;53.068;18.224;2022-11-20T05:09:18;-1.10;1.00
19924;DHT22;10124;53.068;18.224;2022-11-20T05:11:45;-1.10;1.00
19924;DHT22;10124;53.068;18.224;2022-11-20T05:14:17;-1.10;1.00
19924;DHT22;10124;53.068;18.224;2022-11-20T05:16:45;-1.10;1.00
19924;DHT22;10124;53.068;18.224;2022-11-20T05:19:13;-1.20;1.00
19924;DHT22;10124;53.068;18.224;2022-11-20T05:21:40;-1.00;1.00
19924;DHT22;10124;53.068;18.224;2022-11-20T05:24:08;-1.10;1.00
19924;DHT22;10124;53.068;18.224;2022-11-20T05:26:35;-1.10;1.00
19924;DHT22;10124;53.068;18.224;2022-11-20T05:29:03;-1.20;1.00
19924;DHT22;10124;53.068;18.224;2022-11-20T05:31:31;-1.10;1.00
19924;DHT22;10124;53.068;18.224;2022-11-20T05:33:58;-1.00;1.00
19924;DHT22;10124;53.068;18.224;2022-11-20T05:36:26;-1.10;1.00
19924;DHT22;10124;53.068;18.224;2022-11-20T05:38:53;-1.00;1.00
19924;DHT22;10124;53.068;18.224;2022-11-20T05:41:27;0.40;1.00
19924;DHT22;10124;53.068;18.224;2022-11-20T05:43:56;-1.10;1.00
19924;DHT22;10124;53.068;18.224;2022-11-20T05:46:25;-1.20;1.00
19924;DHT22;10124;53.068;18.224;2022-11-20T05:48:56;-1.10;1.00
19924;DHT22;10124;53.068;18.224;2022-11-20T05:51:26;-1.00;1.00
19924;DHT22;10124;53.068;18.224;2022-11-20T05:53:58;-1.20;1.00
19924;DHT22;10124;53.068;18.224;2022-11-20T05:56:26;-1.00;1.00
19924;DHT22;10124;53.068;18.224;2022-11-20T05:58:53;-1.00;1.00
19924;DHT22;10124;53.068;18.224;2022-11-20T06:01:25;-1.00;1.00
19924;DHT22;10124;53.068;18.224;2022-11-20T06:03:54;-1.00;1.00
19924;DHT22;10124;53.068;18.224;2022-11-20T06:06:22;-1.00;1.00
19924;DHT22;10124;53.068;18.224;2022-11-20T06:08:50;-1.00;1.00
19924;DHT22;10124;53.068;18.224;2022-11-20T06:11:18;-0.60;1.00
19924;DHT22;10124;53.068;18.224;2022-11-20T06:13:46;-1.00;1.00
19924;DHT22;10124;53.068;18.224;2022-11-20T06:16:16;-1.10;1.00
19924;DHT22;10124;53.068;18.224;2022-11-20T06:18:46;1.00;1.00
19924;DHT22;10124;53.068;18.224;2022-11-20T06:21:19;-1.00;1.00
19924;DHT22;10124;53.068;18.224;2022-11-20T06:23:50;0.80;1.00
19924;DHT22;10124;53.068;18.224;2022-11-20T06:26:23;-1.10;1.00
19924;DHT22;10124;53.068;18.224;2022-11-20T06:28:51;-1.10;1.00
19924;DHT22;10124;53.068;18.224;2022-11-20T06:31:22;-1.10;1.00
19924;DHT22;10124;53.068;18.224;2022-11-20T06:33:51;-1.10;1.00
19924;DHT22;10124;53.068;18.224;2022-11-20T06:36:21;-1.00;1.00
19924;DHT22;10124;53.068;18.224;2022-11-20T06:38:49;-1.00;1.00
19924;DHT22;10124;53.068;18.224;2022-11-20T06:41:19;-1.00;1.00
19924;DHT22;10124;53.068;18.224;2022-11-20T06:43:48;-0.90;1.00
19924;DHT22;10124;53.068;18.224;2022-11-20T06:46:17;1.10;1.00
19924;DHT22;10124;53.068;18.224;2022-11-20T06:48:47;-0.90;1.00
19924;DHT22;10124;53.068;18.224;2022-11-20T06:51:15;-0.90;1.00
19924;DHT22;10124;53.068;18.224;2022-11-20T06:53:43;-1.00;1.00
19924;DHT22;10124;53.068;18.224;2022-11-20T06:56:10;0.40;1.00
19924;DHT22;10124;53.068;18.224;2022-11-20T06:58:38;-0.90;1.00
19924;DHT22;10124;53.068;18.224;2022-11-20T07:01:10;-0.90;1.00
19924;DHT22;10124;53.068;18.224;2022-11-20T07:03:39;-0.80;1.00
19924;DHT22;10124;53.068;18.224;2022-11-20T07:06:08;-0.90;1.00
19924;DHT22;10124;53.068;18.224;2022-11-20T07:08:36;-0.90;1.00
19924;DHT22;10124;53.068;18.224;2022-11-20T07:11:06;-0.80;1.00
19924;DHT22;10124;53.068;18.224;2022-11-20T07:13:34;0.60;1.00
19924;DHT22;10124;53.068;18.224;2022-11-20T07:16:04;-0.90;1.00
19924;DHT22;10124;53.068;18.224;2022-11-20T07:18:33;-0.90;1.00
19924;DHT22;10124;53.068;18.224;2022-11-20T07:21:06;-0.90;1.00
19924;DHT22;10124;53.068;18.224;2022-11-20T07:23:37;-0.80;1.00
19924;DHT22;10124;53.068;18.224;2022-11-20T07:26:06;-0.80;1.00
19924;DHT22;10124;53.068;18.224;2022-11-20T07:28:35;0.90;1.00
19924;DHT22;10124;53.068;18.224;2022-11-20T07:31:04;-0.80;1.00
19924;DHT22;10124;53.068;18.224;2022-11-20T07:33:34;-0.70;1.00
19924;DHT22;10124;53.068;18.224;2022-11-20T07:36:02;-0.20;1.00
19924;DHT22;10124;53.068;18.224;2022-11-20T07:38:30;-0.70;1.00
19924;DHT22;10124;53.068;18.224;2022-11-20T07:40:58;-0.50;1.00
19924;DHT22;10124;53.068;18.224;2022-11-20T07:43:30;-0.60;1.00
19924;DHT22;10124;53.068;18.224;2022-11-20T07:46:03;-0.50;1.00
19924;DHT22;10124;53.068;18.224;2022-11-20T07:48:32;-0.60;1.00
19924;DHT22;10124;53.068;18.224;2022-11-20T07:50:59;-0.50;1.00
19924;DHT22;10124;53.068;18.224;2022-11-20T07:53:27;-0.40;1.00
19924;DHT22;10124;53.068;18.224;2022-11-20T07:55:55;-0.40;1.00
19924;DHT22;10124;53.068;18.224;2022-11-20T07:58:26;-0.60;1.00
19924;DHT22;10124;53.068;18.224;2022-11-20T08:00:56;-0.30;1.00
19924;DHT22;10124;53.068;18.224;2022-11-20T08:03:24;-0.30;99.90
19924;DHT22;10124;53.068;18.224;2022-11-20T08:05:52;-0.20;99.90
19924;DHT22;10124;53.068;18.224;2022-11-20T08:08:20;-0.20;99.90
19924;DHT22;10124;53.068;18.224;2022-11-20T08:10:50;-0.10;99.90
19924;DHT22;10124;53.068;18.224;2022-11-20T08:13:17;-0.10;99.90
19924;DHT22;10124;53.068;18.224;2022-11-20T08:16:04;-0.10;99.90
19924;DHT22;10124;53.068;18.224;2022-11-20T08:18:34;0.10;99.90
19924;DHT22;10124;53.068;18.224;2022-11-20T08:21:03;0.10;99.90
19924;DHT22;10124;53.068;18.224;2022-11-20T08:23:34;0.00;99.90
19924;DHT22;10124;53.068;18.224;2022-11-20T08:26:03;0.10;99.90
19924;DHT22;10124;53.068;18.224;2022-11-20T08:28:31;0.00;99.90
19924;DHT22;10124;53.068;18.224;2022-11-20T08:31:00;0.10;99.90
19924;DHT22;10124;53.068;18.224;2022-11-20T08:33:30;0.20;99.90
19924;DHT22;10124;53.068;18.224;2022-11-20T08:36:01;0.20;99.90
19924;DHT22;10124;53.068;18.224;2022-11-20T08:38:32;0.20;1.00
19924;DHT22;10124;53.068;18.224;2022-11-20T08:41:04;0.30;99.90
19924;DHT22;10124;53.068;18.224;2022-11-20T08:44:04;0.20;99.90
19924;DHT22;10124;53.068;18.224;2022-11-20T08:46:39;0.20;99.90
19924;DHT22;10124;53.068;18.224;2022-11-20T08:49:11;0.30;99.90
19924;DHT22;10124;53.068;18.224;2022-11-20T08:51:39;0.40;99.90
19924;DHT22;10124;53.068;18.224;2022-11-20T08:54:08;0.40;99.90
19924;DHT22;10124;53.068;18.224;2022-11-20T08:56:36;0.40;99.90
19924;DHT22;10124;53.068;18.224;2022-11-20T08:59:05;0.30;99.90
19924;DHT22;10124;53.068;18.224;2022-11-20T09:01:53;0.30;99.90
19924;DHT22;10124;53.068;18.224;2022-11-20T09:04:21;1.00;99.90
19924;DHT22;10124;53.068;18.224;2022-11-20T09:06:49;0.30;99.90
19924;DHT22;10124;53.068;18.224;2022-11-20T09:09:20;0.20;99.90
19924;DHT22;10124;53.068;18.224;2022-11-20T09:11:48;0.50;99.90
19924;DHT22;10124;53.068;18.224;2022-11-20T09:14:19;0.40;99.90
19924;DHT22;10124;53.068;18.224;2022-11-20T09:16:46;0.40;99.90
19924;DHT22;10124;53.068;18.224;2022-11-20T09:19:14;0.40;99.90
19924;DHT22;10124;53.068;18.224;2022-11-20T09:22:03;0.50;99.90
19924;DHT22;10124;53.068;18.224;2022-11-20T09:24:30;0.50;99.90
19924;DHT22;10124;53.068;18.224;2022-11-20T09:26:58;0.40;99.90
19924;DHT22;10124;53.068;18.224;2022-11-20T09:29:28;0.40;99.90
19924;DHT22;10124;53.068;18.224;2022-11-20T09:31:56;0.60;99.90
19924;DHT22;10124;53.068;18.224;2022-11-20T09:34:24;0.60;99.90
19924;DHT22;10124;53.068;18.224;2022-11-20T09:36:51;0.80;99.90
19924;DHT22;10124;53.068;18.224;2022-11-20T09:39:19;0.80;99.90
19924;DHT22;10124;53.068;18.224;2022-11-20T09:41:56;2.10;93.00
19924;DHT22;10124;53.068;18.224;2022-11-20T09:53:45;1.00;63.00
19924;DHT22;10124;53.068;18.224;2022-11-20T09:56:14;2.20;67.00
19924;DHT22;10124;53.068;18.224;2022-11-20T09:58:52;1.00;62.00
19924;DHT22;10124;53.068;18.224;2022-11-20T10:01:30;0.80;71.60
19924;DHT22;10124;53.068;18.224;2022-11-20T10:04:06;0.70;90.70
19924;DHT22;10124;53.068;18.224;2022-11-20T10:06:47;0.60;97.90
19924;DHT22;10124;53.068;18.224;2022-11-20T10:09:51;0.50;99.90
19924;DHT22;10124;53.068;18.224;2022-11-20T10:21:27;0.60;99.90
19924;DHT22;10124;53.068;18.224;2022-11-20T10:29:50;0.60;99.90
19924;DHT22;10124;53.068;18.224;2022-11-20T10:32:27;0.80;98.20
19924;DHT22;10124;53.068;18.224;2022-11-20T10:35:01;0.80;82.00
19924;DHT22;10124;53.068;18.224;2022-11-20T10:37:32;0.70;74.10
19924;DHT22;10124;53.068;18.224;2022-11-20T10:40:42;0.80;72.80
19924;DHT22;10124;53.068;18.224;2022-11-20T10:48:45;0.80;66.80
19924;DHT22;10124;53.068;18.224;2022-11-20T10:54:27;0.70;59.10
19924;DHT22;10124;53.068;18.224;2022-11-20T11:02:24;0.60;67.20
19924;DHT22;10124;53.068;18.224;2022-11-20T11:04:53;0.60;71.90
19924;DHT22;10124;53.068;18.224;2022-11-20T11:07:35;0.60;71.50
19924;DHT22;10124;53.068;18.224;2022-11-20T11:10:26;0.60;66.20
19924;DHT22;10124;53.068;18.224;2022-11-20T11:12:58;0.70;70.10
19924;DHT22;10124;53.068;18.224;2022-11-20T11:15:37;0.80;69.70
19924;DHT22;10124;53.068;18.224;2022-11-20T11:18:09;0.80;60.20
19924;DHT22;10124;53.068;18.224;2022-11-20T11:20:38;0.60;59.70
19924;DHT22;10124;53.068;18.224;2022-11-20T11:23:36;0.60;78.80
19924;DHT22;10124;53.068;18.224;2022-11-20T11:26:28;0.50;70.30
19924;DHT22;10124;53.068;18.224;2022-11-20T11:29:01;0.40;86.00
19924;DHT22;10124;53.068;18.224;2022-11-20T11:31:34;0.40;99.90
19924;DHT22;10124;53.068;18.224;2022-11-20T11:36:34;0.40;93.50
19924;DHT22;10124;53.068;18.224;2022-11-20T11:39:05;0.30;93.40
19924;DHT22;10124;53.068;18.224;2022-11-20T11:41:34;2.00;99.90
19924;DHT22;10124;53.068;18.224;2022-11-20T11:44:20;0.40;99.90
19924;DHT22;10124;53.068;18.224;2022-11-20T11:47:25;0.40;99.90
19924;DHT22;10124;53.068;18.224;2022-11-20T11:50:22;0.50;99.90
19924;DHT22;10124;53.068;18.224;2022-11-20T11:53:09;0.40;99.90
19924;DHT22;10124;53.068;18.224;2022-11-20T11:56:04;0.40;98.00
19924;DHT22;10124;53.068;18.224;2022-11-20T11:58:48;0.40;99.90
19924;DHT22;10124;53.068;18.224;2022-11-20T12:01:43;0.40;99.90
19924;DHT22;10124;53.068;18.224;2022-11-20T12:04:36;0.50;99.90
19924;DHT22;10124;53.068;18.224;2022-11-20T12:07:22;0.50;99.90
19924;DHT22;10124;53.068;18.224;2022-11-20T12:10:21;0.60;99.90
19924;DHT22;10124;53.068;18.224;2022-11-20T12:13:26;0.60;99.90
19924;DHT22;10124;53.068;18.224;2022-11-20T12:15:58;0.80;99.90
19924;DHT22;10124;53.068;18.224;2022-11-20T12:18:27;0.70;99.90
19924;DHT22;10124;53.068;18.224;2022-11-20T12:29:48;0.90;97.30
19924;DHT22;10124;53.068;18.224;2022-11-20T12:38:23;0.70;99.90
19924;DHT22;10124;53.068;18.224;2022-11-20T12:41:27;1.20;99.90
19924;DHT22;10124;53.068;18.224;2022-11-20T12:53:59;1.10;99.90
19924;DHT22;10124;53.068;18.224;2022-11-20T12:56:43;1.00;99.90
19924;DHT22;10124;53.068;18.224;2022-11-20T13:23:38;0.80;99.90
19924;DHT22;10124;53.068;18.224;2022-11-20T13:26:33;0.90;99.90
19924;DHT22;10124;53.068;18.224;2022-11-20T13:29:20;1.30;99.90
19924;DHT22;10124;53.068;18.224;2022-11-20T13:31:49;0.90;99.90
19924;DHT22;10124;53.068;18.224;2022-11-20T13:34:25;0.90;99.90
19924;DHT22;10124;53.068;18.224;2022-11-20T13:36:57;0.90;99.90
19924;DHT22;10124;53.068;18.224;2022-11-20T13:39:32;0.90;99.90
19924;DHT22;10124;53.068;18.224;2022-11-20T13:44:46;0.90;99.90
19924;DHT22;10124;53.068;18.224;2022-11-20T13:47:35;1.30;99.90
19924;DHT22;10124;53.068;18.224;2022-11-20T13:50:09;0.80;99.90
19924;DHT22;10124;53.068;18.224;2022-11-20T13:55:49;0.60;99.90
19924;DHT22;10124;53.068;18.224;2022-11-20T14:01:28;0.60;99.90
19924;DHT22;10124;53.068;18.224;2022-11-20T14:03:59;0.60;99.90
19924;DHT22;10124;53.068;18.224;2022-11-20T14:06:45;0.40;99.90
19924;DHT22;10124;53.068;18.224;2022-11-20T14:09:31;-0.20;99.90
19924;DHT22;10124;53.068;18.224;2022-11-20T14:14:30;0.30;99.90
19924;DHT22;10124;53.068;18.224;2022-11-20T14:17:20;0.30;99.90
19924;DHT22;10124;53.068;18.224;2022-11-20T14:19:51;0.30;99.90
19924;DHT22;10124;53.068;18.224;2022-11-20T14:22:27;0.20;99.90
19924;DHT22;10124;53.068;18.224;2022-11-20T14:25:18;0.20;99.90
19924;DHT22;10124;53.068;18.224;2022-11-20T14:28:00;0.20;99.90
19924;DHT22;10124;53.068;18.224;2022-11-20T14:35:40;0.10;99.90
19924;DHT22;10124;53.068;18.224;2022-11-20T14:38:12;0.10;99.90
19924;DHT22;10124;53.068;18.224;2022-11-20T14:40:43;0.10;99.90
19924;DHT22;10124;53.068;18.224;2022-11-20T14:48:44;0.00;99.90
19924;DHT22;10124;53.068;18.224;2022-11-20T14:51:34;0.10;99.90
19924;DHT22;10124;53.068;18.224;2022-11-20T14:57:02;0.00;99.90
19924;DHT22;10124;53.068;18.224;2022-11-20T14:59:33;0.00;99.90
19924;DHT22;10124;53.068;18.224;2022-11-20T15:02:10;0.00;99.90
19924;DHT22;10124;53.068;18.224;2022-11-20T15:04:50;0.00;99.90
19924;DHT22;10124;53.068;18.224;2022-11-20T15:07:31;-0.20;99.90
19924;DHT22;10124;53.068;18.224;2022-11-20T15:10:07;0.00;99.90
19924;DHT22;10124;53.068;18.224;2022-11-20T15:12:40;-0.20;1.00
19924;DHT22;10124;53.068;18.224;2022-11-20T15:20:16;-0.30;99.90
19924;DHT22;10124;53.068;18.224;2022-11-20T15:30:19;-0.20;99.90
19924;DHT22;10124;53.068;18.224;2022-11-20T15:32:48;-0.20;99.90
19924;DHT22;10124;53.068;18.224;2022-11-20T15:35:16;-0.30;99.90
19924;DHT22;10124;53.068;18.224;2022-11-20T15:37:44;-0.30;99.90
19924;DHT22;10124;53.068;18.224;2022-11-20T15:40:12;-0.40;99.90
19924;DHT22;10124;53.068;18.224;2022-11-20T15:42:40;-0.30;99.90
19924;DHT22;10124;53.068;18.224;2022-11-20T15:45:33;-0.30;99.90
19924;DHT22;10124;53.068;18.224;2022-11-20T15:48:02;-0.30;99.90
19924;DHT22;10124;53.068;18.224;2022-11-20T15:50:37;-0.30;99.90
19924;DHT22;10124;53.068;18.224;2022-11-20T15:53:05;-0.20;99.90
19924;DHT22;10124;53.068;18.224;2022-11-20T15:55:34;-0.20;99.90
19924;DHT22;10124;53.068;18.224;2022-11-20T15:58:03;-0.20;99.90
19924;DHT22;10124;53.068;18.224;2022-11-20T16:00:31;-0.20;99.90
19924;DHT22;10124;53.068;18.224;2022-11-20T16:03:00;-0.10;99.90
19924;DHT22;10124;53.068;18.224;2022-11-20T16:05:29;-0.20;99.90
19924;DHT22;10124;53.068;18.224;2022-11-20T16:07:57;-0.60;99.90
19924;DHT22;10124;53.068;18.224;2022-11-20T16:10:25;0.00;99.90
19924;DHT22;10124;53.068;18.224;2022-11-20T16:12:53;-0.30;99.90
19924;DHT22;10124;53.068;18.224;2022-11-20T16:15:40;-0.20;99.90
19924;DHT22;10124;53.068;18.224;2022-11-20T16:18:19;-0.30;99.90
19924;DHT22;10124;53.068;18.224;2022-11-20T16:20:53;0.30;99.90
19924;DHT22;10124;53.068;18.224;2022-11-20T16:23:23;0.30;99.90
19924;DHT22;10124;53.068;18.224;2022-11-20T16:25:51;-0.30;99.90
19924;DHT22;10124;53.068;18.224;2022-11-20T16:28:20;-0.40;99.90
19924;DHT22;10124;53.068;18.224;2022-11-20T16:30:48;0.00;1.00
19924;DHT22;10124;53.068;18.224;2022-11-20T16:33:16;-0.20;1.00
19924;DHT22;10124;53.068;18.224;2022-11-20T16:35:44;-0.20;1.00
19924;DHT22;10124;53.068;18.224;2022-11-20T16:40:41;-0.20;1.00
19924;DHT22;10124;53.068;18.224;2022-11-20T16:43:13;-0.40;99.90
19924;DHT22;10124;53.068;18.224;2022-11-20T16:45:43;-0.40;1.00
19924;DHT22;10124;53.068;18.224;2022-11-20T16:48:13;-0.40;1.00
19924;DHT22;10124;53.068;18.224;2022-11-20T16:50:52;-0.40;1.00
19924;DHT22;10124;53.068;18.224;2022-11-20T16:53:21;-0.20;1.00
19924;DHT22;10124;53.068;18.224;2022-11-20T16:55:49;-0.60;1.00
19924;DHT22;10124;53.068;18.224;2022-11-20T17:45:23;-0.50;1.00
19924;DHT22;10124;53.068;18.224;2022-11-20T18:07:51;-0.50;1.00
19924;DHT22;10124;53.068;18.224;2022-11-20T18:10:20;-0.30;99.90
19924;DHT22;10124;53.068;18.224;2022-11-20T18:15:17;-0.70;1.00
19924;DHT22;10124;53.068;18.224;2022-11-20T18:20:13;-1.00;1.00
19924;DHT22;10124;53.068;18.224;2022-11-20T19:20:25;-0.70;99.90
19924;DHT22;10124;53.068;18.224;2022-11-20T19:25:23;-0.50;1.00
19924;DHT22;10124;53.068;18.224;2022-11-20T19:30:20;-0.70;1.00
19924;DHT22;10124;53.068;18.224;2022-11-20T19:32:48;-0.30;1.00
19924;DHT22;10124;53.068;18.224;2022-11-20T19:35:15;-0.60;99.90
19924;DHT22;10124;53.068;18.224;2022-11-20T20:10:26;-0.50;99.90
19924;DHT22;10124;53.068;18.224;2022-11-20T20:15:23;-0.40;99.90
19924;DHT22;10124;53.068;18.224;2022-11-20T20:17:52;-0.30;1.00
19924;DHT22;10124;53.068;18.224;2022-11-20T20:40:08;-0.50;99.90
19924;DHT22;10124;53.068;18.224;2022-11-20T20:47:40;-0.30;99.90
19924;DHT22;10124;53.068;18.224;2022-11-20T20:50:10;-0.50;99.90
19924;DHT22;10124;53.068;18.224;2022-11-20T22:28:09;-2.00;1.00
